Time;durP1;ratioP1;P1;durP2;ratioP2;P2;SDS_P1;SDS_P2;PMS_P1;PMS_P2;Temp;Humidity;BMP_temperature;BMP_pressure;BME280_temperature;BME280_humidity;BME280_pressure;Samples;Min_cycle;Max_cycle;Signal;HPM_P1;HPM_P2
2023/01/28 00:01:53;;;;;;;6.78;6.18;;;2.30;99.90;;;;;;6154088;23;20048;-80
2023/01/28 00:04:19;;;;;;;6.95;6.45;;;2.30;99.90;;;;;;6152530;23;20084;-80
2023/01/28 00:06:44;;;;;;;6.80;6.30;;;2.20;99.90;;;;;;6129586;23;20014;-80
2023/01/28 00:09:10;;;;;;;6.55;5.95;;;2.20;99.90;;;;;;6154263;23;20017;-79
2023/01/28 00:11:35;;;;;;;6.53;6.00;;;2.20;99.90;;;;;;6130274;23;20451;-80
2023/01/28 00:14:03;;;;;;;6.80;6.22;;;2.20;99.90;;;;;;6128866;23;20020;-80
2023/01/28 00:16:29;;;;;;;7.53;6.93;;;2.10;99.90;;;;;;6127722;23;20084;-80
2023/01/28 00:18:55;;;;;;;7.78;6.63;;;2.10;99.90;;;;;;6129895;23;20459;-80
2023/01/28 00:21:21;;;;;;;6.75;6.20;;;2.10;99.90;;;;;;6153461;23;20025;-80
2023/01/28 00:23:51;;;;;;;7.35;6.75;;;2.10;99.90;;;;;;6130040;23;20017;-80
2023/01/28 00:26:16;;;;;;;8.13;7.45;;;2.10;99.90;;;;;;6128321;23;20018;-80
2023/01/28 00:28:42;;;;;;;7.80;7.20;;;2.10;99.90;;;;;;6154063;23;20618;-80
2023/01/28 00:31:20;;;;;;;7.43;6.78;;;2.00;99.90;;;;;;6152890;23;20014;-80
2023/01/28 00:33:47;;;;;;;8.15;7.45;;;2.10;99.90;;;;;;6127740;23;20068;-80
2023/01/28 00:36:13;;;;;;;8.48;7.78;;;2.20;99.90;;;;;;6126856;23;20009;-80
2023/01/28 00:38:41;;;;;;;8.48;7.78;;;2.20;99.90;;;;;;6130078;23;20013;-80
2023/01/28 00:41:12;;;;;;;9.10;8.20;;;2.20;99.90;;;;;;6153293;23;20033;-80
2023/01/28 00:43:38;;;;;;;8.93;8.23;;;2.20;99.90;;;;;;6153702;23;20040;-80
2023/01/28 00:46:06;;;;;;;9.45;8.55;;;2.20;99.90;;;;;;6152907;23;20021;-80
2023/01/28 00:48:32;;;;;;;8.63;7.32;;;2.20;99.90;;;;;;6153572;23;20102;-80
2023/01/28 00:50:58;;;;;;;8.90;8.07;;;2.20;99.90;;;;;;6128428;23;20025;-80
2023/01/28 00:53:24;;;;;;;8.70;8.00;;;2.20;99.90;;;;;;6129571;23;20014;-80
2023/01/28 00:55:49;;;;;;;8.50;7.80;;;2.20;99.90;;;;;;6127899;23;20014;-80
2023/01/28 00:58:15;;;;;;;9.50;8.70;;;2.20;99.90;;;;;;6128964;23;20013;-80
2023/01/28 01:00:41;;;;;;;8.82;8.13;;;2.20;99.90;;;;;;6152640;23;20100;-80
2023/01/28 01:03:06;;;;;;;8.95;8.15;;;2.10;99.90;;;;;;6153156;23;20056;-80
2023/01/28 01:05:32;;;;;;;8.18;7.38;;;2.20;99.90;;;;;;6126911;23;20022;-80
2023/01/28 01:07:58;;;;;;;9.55;8.65;;;2.20;99.90;;;;;;6152409;23;20072;-80
2023/01/28 01:10:24;;;;;;;9.70;8.90;;;2.20;99.90;;;;;;6151947;23;20013;-80
2023/01/28 01:12:50;;;;;;;9.65;8.85;;;2.20;99.90;;;;;;6153771;23;20025;-80
2023/01/28 01:15:17;;;;;;;13.50;9.25;;;2.30;99.90;;;;;;6152757;23;20069;-79
2023/01/28 01:17:46;;;;;;;10.02;9.23;;;2.20;99.90;;;;;;6154774;23;20017;-80
2023/01/28 01:20:15;;;;;;;10.52;9.73;;;2.20;99.90;;;;;;6152636;23;20521;-79
2023/01/28 01:22:40;;;;;;;10.30;9.40;;;2.10;99.90;;;;;;6128540;23;20020;-79
2023/01/28 01:25:06;;;;;;;11.15;9.15;;;2.20;99.90;;;;;;6151650;23;20017;-79
2023/01/28 01:27:32;;;;;;;9.88;8.85;;;2.40;99.90;;;;;;6153644;23;20501;-80
2023/01/28 01:29:58;;;;;;;9.68;8.88;;;2.20;99.90;;;;;;6152474;23;20056;-80
2023/01/28 01:32:27;;;;;;;9.65;8.85;;;2.20;99.90;;;;;;6128006;23;20025;-80
2023/01/28 01:34:53;;;;;;;10.93;10.02;;;2.20;99.90;;;;;;6126586;23;20393;-79
2023/01/28 01:37:19;;;;;;;9.85;9.05;;;2.10;99.90;;;;;;6128605;23;20045;-80
2023/01/28 01:39:44;;;;;;;9.65;8.85;;;2.10;99.90;;;;;;6127515;23;20129;-80
2023/01/28 01:42:13;;;;;;;9.93;9.13;;;2.20;99.90;;;;;;6129173;23;20436;-79
2023/01/28 01:45:01;;;;;;;9.75;8.95;;;2.20;99.90;;;;;;6129015;23;20044;-80
2023/01/28 01:47:36;;;;;;;8.68;7.97;;;2.20;99.90;;;;;;6129605;23;20354;-79
2023/01/28 01:50:16;;;;;;;7.77;7.07;;;2.10;99.90;;;;;;6126447;23;20021;-80
2023/01/28 01:52:44;;;;;;;8.38;7.57;;;2.10;99.90;;;;;;6128762;23;20496;-79
2023/01/28 01:55:16;;;;;;;7.88;7.25;;;2.10;99.90;;;;;;6127182;23;20029;-80
2023/01/28 01:57:42;;;;;;;7.70;6.88;;;2.10;99.90;;;;;;6154158;23;20215;-80
2023/01/28 02:00:08;;;;;;;8.00;7.30;;;2.00;99.90;;;;;;6127681;23;20014;-80
2023/01/28 02:02:38;;;;;;;7.32;6.72;;;2.00;99.90;;;;;;6128251;23;20109;-80
2023/01/28 02:05:07;;;;;;;8.13;7.45;;;2.00;99.90;;;;;;6128563;23;20076;-80
2023/01/28 02:07:33;;;;;;;8.10;7.50;;;1.90;99.90;;;;;;6129510;23;20014;-79
2023/01/28 02:09:59;;;;;;;7.97;7.32;;;1.90;99.90;;;;;;6154757;23;20013;-80
2023/01/28 02:12:29;;;;;;;8.52;7.82;;;2.00;99.90;;;;;;6155249;23;20017;-80
2023/01/28 02:15:00;;;;;;;9.10;8.30;;;2.00;99.90;;;;;;6129551;23;20018;-79
2023/01/28 02:17:26;;;;;;;9.43;8.63;;;1.70;99.90;;;;;;6129130;23;20017;-79
2023/01/28 02:19:59;;;;;;;9.90;9.00;;;2.00;99.90;;;;;;6153116;23;20022;-80
2023/01/28 02:22:31;;;;;;;9.25;8.45;;;1.90;99.90;;;;;;6130797;23;20029;-80
2023/01/28 02:25:21;;;;;;;8.93;8.20;;;1.90;99.90;;;;;;6153668;23;20055;-80
2023/01/28 02:27:49;;;;;;;9.20;8.40;;;1.90;99.90;;;;;;6155445;23;20053;-80
2023/01/28 02:30:32;;;;;;;9.00;8.20;;;1.90;99.90;;;;;;6128349;23;20021;-80
2023/01/28 02:33:09;;;;;;;9.15;8.35;;;2.00;99.90;;;;;;6129995;23;20021;-80
2023/01/28 02:35:45;;;;;;;10.32;9.32;;;2.00;99.90;;;;;;6128099;23;20553;-80
2023/01/28 02:38:30;;;;;;;9.57;8.80;;;2.00;99.90;;;;;;6155067;23;20048;-80
2023/01/28 02:41:24;;;;;;;9.65;8.85;;;2.00;99.90;;;;;;6130258;23;20561;-80
2023/01/28 02:43:49;;;;;;;9.32;8.52;;;2.10;99.90;;;;;;6116364;23;20458;-79
2023/01/28 02:49:19;;;;;;;9.52;8.73;;;2.10;99.90;;;;;;6151925;23;20359;-80
2023/01/28 02:52:12;;;;;;;10.05;9.05;;;2.10;99.90;;;;;;6131069;23;20064;-80
2023/01/28 02:54:56;;;;;;;9.68;8.77;;;2.10;99.90;;;;;;6153908;23;20014;-80
2023/01/28 02:57:33;;;;;;;9.43;8.52;;;2.10;99.90;;;;;;6129881;23;20060;-80
2023/01/28 03:00:06;;;;;;;8.70;8.00;;;2.00;99.90;;;;;;6154591;23;20013;-80
2023/01/28 03:02:37;;;;;;;8.85;8.05;;;2.00;99.90;;;;;;6154704;23;20009;-80
2023/01/28 03:05:24;;;;;;;9.30;8.38;;;2.10;99.90;;;;;;6152952;23;20354;-80
2023/01/28 03:07:52;;;;;;;8.10;7.50;;;2.10;99.90;;;;;;6130767;23;20017;-80
2023/01/28 03:10:20;;;;;;;9.60;8.80;;;2.10;99.90;;;;;;6129581;23;20018;-80
2023/01/28 03:38:24;;;;;;;8.35;7.63;;;2.30;99.90;;;;;;6154189;23;20032;-80
2023/01/28 03:41:01;;;;;;;10.00;7.43;;;2.00;99.90;;;;;;6153877;23;20658;-80
2023/01/28 03:43:28;;;;;;;9.55;8.75;;;2.10;99.90;;;;;;6154775;23;20684;-80
2023/01/28 03:45:54;;;;;;;8.70;7.95;;;2.00;99.90;;;;;;6151250;23;20012;-79
2023/01/28 03:48:22;;;;;;;7.78;7.18;;;1.50;99.90;;;;;;6130198;23;20020;-80
2023/01/28 03:50:49;;;;;;;8.82;8.02;;;2.00;99.90;;;;;;6154022;23;20064;-80
2023/01/28 03:53:16;;;;;;;8.27;7.57;;;2.10;99.90;;;;;;6154361;23;20013;-80
2023/01/28 03:55:42;;;;;;;8.90;8.10;;;2.10;99.90;;;;;;6152964;23;20024;-80
2023/01/28 03:58:09;;;;;;;8.68;7.93;;;2.00;99.90;;;;;;6154184;23;20010;-79
2023/01/28 04:00:40;;;;;;;8.50;7.80;;;2.10;99.90;;;;;;6153483;23;20021;-80
2023/01/28 04:03:17;;;;;;;8.65;7.85;;;2.10;99.90;;;;;;6129612;23;20443;-80
2023/01/28 04:05:59;;;;;;;8.82;8.02;;;2.10;99.90;;;;;;6152950;23;20107;-80
2023/01/28 04:08:25;;;;;;;7.65;6.95;;;2.10;99.90;;;;;;6129590;23;20018;-79
2023/01/28 04:10:50;;;;;;;7.05;6.45;;;2.10;99.90;;;;;;6129484;23;20017;-80
2023/01/28 04:13:17;;;;;;;6.63;6.03;;;2.10;99.90;;;;;;6152774;23;20092;-80
2023/01/28 04:15:44;;;;;;;6.93;6.32;;;2.10;99.90;;;;;;6152871;23;20010;-80
2023/01/28 04:18:10;;;;;;;7.28;6.68;;;2.20;99.90;;;;;;6129022;23;20018;-80
2023/01/28 04:20:36;;;;;;;7.88;7.07;;;2.20;99.90;;;;;;6129448;23;20020;-79
2023/01/28 04:23:03;;;;;;;6.55;6.05;;;2.10;99.90;;;;;;6129710;23;20013;-80
2023/01/28 04:25:29;;;;;;;8.15;7.25;;;2.20;99.90;;;;;;6127811;23;20022;-80
2023/01/28 04:27:55;;;;;;;7.90;7.22;;;2.20;99.90;;;;;;6153583;23;20084;-80
2023/01/28 04:30:21;;;;;;;7.43;6.68;;;2.20;99.90;;;;;;6127038;23;20533;-80
2023/01/28 04:32:49;;;;;;;6.72;6.13;;;2.20;99.90;;;;;;6153139;23;20014;-80
2023/01/28 04:35:15;;;;;;;6.95;6.25;;;2.20;99.90;;;;;;6152479;23;20021;-80
2023/01/28 04:37:41;;;;;;;6.93;6.32;;;2.20;99.90;;;;;;6153740;23;20224;-80
2023/01/28 04:40:08;;;;;;;6.63;6.10;;;2.20;99.90;;;;;;6154173;23;20392;-80
2023/01/28 04:42:33;;;;;;;6.90;6.30;;;2.20;99.90;;;;;;6129379;23;20018;-80
2023/01/28 04:44:59;;;;;;;7.43;6.82;;;2.20;99.90;;;;;;6153579;23;20021;-80
2023/01/28 04:47:24;;;;;;;7.22;6.63;;;2.20;99.90;;;;;;6128929;23;20148;-79
2023/01/28 04:49:50;;;;;;;7.18;6.60;;;2.20;99.90;;;;;;6153154;23;20025;-79
2023/01/28 04:52:15;;;;;;;6.65;6.10;;;2.20;99.90;;;;;;6129970;23;20017;-79
2023/01/28 04:54:41;;;;;;;7.00;6.50;;;2.20;99.90;;;;;;6128265;23;20072;-79
2023/01/28 04:57:07;;;;;;;6.88;6.38;;;2.20;99.90;;;;;;6152052;23;20009;-79
2023/01/28 04:59:32;;;;;;;7.03;6.43;;;2.20;99.90;;;;;;6152426;23;20016;-80
2023/01/28 05:01:58;;;;;;;6.80;6.20;;;2.20;99.90;;;;;;6129254;23;20443;-80
2023/01/28 05:04:23;;;;;;;7.30;6.70;;;2.20;99.90;;;;;;6127944;23;20081;-80
2023/01/28 05:06:49;;;;;;;7.60;6.70;;;2.20;99.90;;;;;;6128509;23;20024;-80
2023/01/28 05:09:15;;;;;;;8.38;7.60;;;2.20;99.90;;;;;;6152662;23;20132;-80
2023/01/28 05:11:41;;;;;;;7.78;7.10;;;2.20;99.90;;;;;;6152692;23;20058;-80
2023/01/28 05:14:07;;;;;;;7.47;6.88;;;2.20;99.90;;;;;;6151649;23;20028;-80
2023/01/28 05:16:33;;;;;;;8.10;7.40;;;2.10;99.90;;;;;;6127690;23;20018;-80
2023/01/28 05:19:00;;;;;;;9.02;8.20;;;2.10;99.90;;;;;;6129476;23;20009;-80
2023/01/28 05:21:26;;;;;;;9.13;8.30;;;2.10;99.90;;;;;;6127692;23;20009;-80
2023/01/28 05:23:51;;;;;;;9.18;8.38;;;2.20;99.90;;;;;;6153783;23;20084;-80
2023/01/28 05:26:17;;;;;;;8.82;8.05;;;2.20;99.90;;;;;;6128693;23;20017;-80
2023/01/28 05:28:42;;;;;;;7.53;6.93;;;2.10;99.90;;;;;;6153197;23;20928;-80
2023/01/28 05:31:09;;;;;;;8.00;7.30;;;2.10;99.90;;;;;;6129246;23;20101;-80
2023/01/28 05:33:35;;;;;;;7.25;6.57;;;2.10;99.90;;;;;;6128421;23;20018;-80
2023/01/28 05:36:00;;;;;;;7.47;6.82;;;2.10;99.90;;;;;;6152722;23;20024;-80
2023/01/28 05:38:26;;;;;;;6.80;6.07;;;2.10;99.90;;;;;;6153201;23;20014;-80
2023/01/28 05:40:51;;;;;;;7.25;6.55;;;2.10;99.90;;;;;;6152573;23;20108;-80
2023/01/28 05:43:17;;;;;;;8.27;7.47;;;2.10;99.90;;;;;;6128773;23;20110;-79
2023/01/28 05:45:43;;;;;;;8.80;7.50;;;2.10;99.90;;;;;;6126310;23;20010;-79
2023/01/28 05:48:08;;;;;;;7.97;7.28;;;2.10;99.90;;;;;;6128499;23;20013;-80
2023/01/28 05:50:34;;;;;;;8.73;7.95;;;2.10;99.90;;;;;;6153112;23;20009;-80
2023/01/28 05:52:59;;;;;;;11.68;8.63;;;2.10;99.90;;;;;;6128557;23;20044;-80
2023/01/28 05:55:25;;;;;;;9.52;8.48;;;2.10;99.90;;;;;;6152025;23;20017;-79
2023/01/28 05:57:51;;;;;;;9.50;8.60;;;2.10;99.90;;;;;;6129165;23;20018;-79
2023/01/28 06:00:17;;;;;;;9.80;8.88;;;2.10;99.90;;;;;;6151651;23;20347;-79
2023/01/28 06:02:42;;;;;;;9.93;8.50;;;2.10;99.90;;;;;;6127862;23;20040;-79
2023/01/28 06:05:09;;;;;;;10.88;9.95;;;2.10;99.90;;;;;;6128386;23;20043;-80
2023/01/28 06:07:34;;;;;;;9.63;8.73;;;2.00;99.90;;;;;;6128197;23;20024;-79
2023/01/28 06:10:00;;;;;;;9.20;8.40;;;2.00;99.90;;;;;;6127750;23;20021;-80
2023/01/28 06:12:26;;;;;;;10.35;9.50;;;2.00;99.90;;;;;;6152831;23;20014;-80
2023/01/28 06:14:51;;;;;;;9.75;8.85;;;2.00;99.90;;;;;;6127173;23;20022;-79
2023/01/28 06:17:17;;;;;;;10.48;9.48;;;2.00;99.90;;;;;;6127698;23;20470;-80
2023/01/28 06:19:43;;;;;;;11.48;10.48;;;2.00;99.90;;;;;;6127839;23;20476;-80
2023/01/28 06:22:08;;;;;;;10.98;9.82;;;2.00;99.90;;;;;;6128923;23;20723;-80
2023/01/28 06:24:34;;;;;;;10.27;9.38;;;2.00;99.90;;;;;;6153590;23;20351;-80
2023/01/28 06:27:00;;;;;;;11.00;10.07;;;2.00;99.90;;;;;;6152248;23;20081;-80
2023/01/28 06:29:25;;;;;;;12.35;10.63;;;2.10;99.90;;;;;;6126393;23;20049;-79
2023/01/28 06:31:51;;;;;;;10.65;9.65;;;2.10;99.90;;;;;;6129455;23;20018;-79
2023/01/28 06:34:17;;;;;;;11.07;10.02;;;2.10;99.90;;;;;;6153388;23;20033;-80
2023/01/28 06:36:43;;;;;;;11.32;10.23;;;2.10;99.90;;;;;;6152844;23;20016;-80
2023/01/28 06:39:08;;;;;;;10.43;9.50;;;2.10;99.90;;;;;;6153080;23;20040;-79
2023/01/28 06:41:34;;;;;;;10.40;9.50;;;2.10;99.90;;;;;;6127573;23;20013;-80
2023/01/28 06:44:00;;;;;;;11.15;10.15;;;2.10;99.90;;;;;;6127970;23;20045;-79
2023/01/28 06:46:25;;;;;;;10.02;9.18;;;2.10;99.90;;;;;;6127551;23;20009;-80
2023/01/28 06:48:52;;;;;;;10.85;9.85;;;2.10;99.90;;;;;;6129688;23;20533;-79
2023/01/28 06:51:17;;;;;;;9.13;8.35;;;2.00;99.90;;;;;;6130465;23;20017;-80
2023/01/28 06:53:43;;;;;;;10.90;9.95;;;2.10;99.90;;;;;;6129843;23;20344;-80
2023/01/28 06:56:09;;;;;;;9.77;8.88;;;2.10;99.90;;;;;;6128032;23;20009;-80
2023/01/28 06:58:34;;;;;;;10.10;9.30;;;2.10;99.90;;;;;;6129931;23;20599;-79
2023/01/28 07:01:00;;;;;;;10.93;9.80;;;2.10;99.90;;;;;;6153546;23;20013;-80
2023/01/28 07:03:25;;;;;;;10.25;9.35;;;2.10;99.90;;;;;;6130010;23;20014;-80
2023/01/28 07:05:51;;;;;;;10.98;9.88;;;2.10;99.90;;;;;;6129694;23;20068;-79
2023/01/28 07:08:17;;;;;;;10.68;9.65;;;2.10;99.90;;;;;;6154975;23;20097;-80
2023/01/28 07:10:43;;;;;;;13.10;10.32;;;2.10;99.90;;;;;;6127835;23;20093;-80
2023/01/28 07:13:09;;;;;;;10.80;9.80;;;2.00;99.90;;;;;;6153789;23;20013;-80
2023/01/28 07:15:35;;;;;;;12.85;9.60;;;2.00;99.90;;;;;;6152372;23;20458;-80
2023/01/28 07:18:00;;;;;;;9.02;8.23;;;2.00;99.90;;;;;;6153362;23;20018;-80
2023/01/28 07:20:26;;;;;;;9.20;8.05;;;2.00;99.90;;;;;;6154272;23;20033;-83
2023/01/28 07:22:52;;;;;;;7.85;7.05;;;2.00;99.90;;;;;;6127455;23;20049;-80
2023/01/28 07:25:17;;;;;;;8.50;7.57;;;2.00;99.90;;;;;;6152580;23;20018;-80
2023/01/28 07:27:51;;;;;;;8.07;7.38;;;2.00;99.90;;;;;;6153042;23;20048;-83
2023/01/28 07:30:18;;;;;;;8.25;7.50;;;2.00;99.90;;;;;;6125720;23;20021;-85
2023/01/28 07:32:44;;;;;;;7.55;6.90;;;2.10;99.90;;;;;;6148432;23;20060;-85
2023/01/28 07:35:10;;;;;;;7.55;6.82;;;2.00;99.90;;;;;;6150299;23;20026;-85
2023/01/28 07:37:35;;;;;;;7.32;6.72;;;2.00;99.90;;;;;;6127209;23;20017;-83
2023/01/28 07:40:01;;;;;;;7.75;6.95;;;2.00;99.90;;;;;;6126292;23;20053;-78
2023/01/28 07:42:27;;;;;;;8.52;7.57;;;2.00;99.90;;;;;;6125709;23;20076;-81
2023/01/28 07:44:52;;;;;;;8.23;7.43;;;2.00;99.90;;;;;;6124956;23;20742;-81
2023/01/28 07:47:18;;;;;;;8.73;7.82;;;2.00;99.90;;;;;;6126957;23;20057;-80
2023/01/28 07:49:44;;;;;;;8.60;7.75;;;1.90;99.90;;;;;;6150758;23;20429;-84
2023/01/28 07:52:19;;;;;;;8.65;7.75;;;2.00;99.90;;;;;;6125586;23;20068;-86
2023/01/28 07:54:44;;;;;;;7.93;7.23;;;2.00;99.90;;;;;;6098745;23;20339;-83
2023/01/28 07:57:10;;;;;;;8.15;7.32;;;2.00;99.90;;;;;;6125091;23;20256;-84
2023/01/28 07:59:44;;;;;;;9.25;7.47;;;2.00;99.90;;;;;;6138446;23;20069;-79
2023/01/28 08:02:13;;;;;;;9.35;8.43;;;2.00;99.90;;;;;;6129512;23;20354;-81
2023/01/28 08:04:39;;;;;;;8.98;8.18;;;1.90;99.90;;;;;;6124597;23;20028;-81
2023/01/28 08:07:05;;;;;;;9.50;8.63;;;1.90;99.90;;;;;;6149242;23;20028;-82
2023/01/28 08:09:33;;;;;;;10.35;9.27;;;1.80;99.90;;;;;;6150938;23;20025;-81
2023/01/28 08:12:00;;;;;;;15.13;9.65;;;1.80;99.90;;;;;;6127677;23;20024;-80
2023/01/28 08:14:26;;;;;;;10.23;9.23;;;1.80;99.90;;;;;;6148823;23;20410;-81
2023/01/28 08:16:52;;;;;;;9.82;8.82;;;1.80;99.90;;;;;;6149888;23;20048;-81
2023/01/28 08:19:17;;;;;;;12.25;9.15;;;1.80;99.90;;;;;;6128195;23;20328;-81
2023/01/28 08:21:43;;;;;;;10.45;9.23;;;1.80;99.90;;;;;;6152761;23;20035;-82
2023/01/28 08:24:08;;;;;;;9.18;8.38;;;1.80;99.90;;;;;;6151606;23;20021;-82
2023/01/28 08:26:34;;;;;;;10.77;9.18;;;1.80;99.90;;;;;;6126505;23;20024;-84
2023/01/28 08:29:00;;;;;;;9.55;8.75;;;1.90;99.90;;;;;;6126600;23;20099;-81
2023/01/28 08:31:27;;;;;;;10.05;8.98;;;1.90;99.90;;;;;;6151274;23;20017;-81
2023/01/28 08:33:53;;;;;;;8.13;7.43;;;1.90;99.90;;;;;;6148945;23;20096;-81
2023/01/28 08:36:19;;;;;;;9.43;8.32;;;1.90;99.90;;;;;;6150709;23;20044;-82
2023/01/28 08:38:44;;;;;;;12.73;9.10;;;1.90;99.90;;;;;;6151317;23;20014;-82
2023/01/28 08:41:10;;;;;;;9.35;8.40;;;1.80;99.90;;;;;;6150179;23;20096;-84
2023/01/28 08:43:36;;;;;;;8.52;7.75;;;1.90;99.90;;;;;;6150833;23;20025;-82
2023/01/28 08:46:05;;;;;;;9.40;8.40;;;1.90;99.90;;;;;;6125626;23;20017;-82
2023/01/28 08:48:30;;;;;;;9.50;7.70;;;1.90;99.90;;;;;;6152594;23;20312;-81
2023/01/28 08:50:58;;;;;;;8.23;7.35;;;1.90;99.90;;;;;;6127552;23;20025;-82
2023/01/28 08:53:24;;;;;;;8.57;7.78;;;1.50;99.90;;;;;;6150694;23;20017;-82
2023/01/28 08:55:49;;;;;;;8.15;7.45;;;2.00;99.90;;;;;;6149480;23;20013;-81
2023/01/28 08:58:17;;;;;;;7.78;7.07;;;1.90;99.90;;;;;;6145302;23;20021;-82
2023/01/28 09:00:44;;;;;;;8.57;7.78;;;2.10;99.90;;;;;;6147265;23;20040;-82
2023/01/28 09:03:09;;;;;;;7.35;6.68;;;2.10;99.90;;;;;;6153326;23;20010;-82
2023/01/28 09:05:36;;;;;;;7.18;6.57;;;2.10;99.90;;;;;;6126226;23;20045;-83
2023/01/28 09:08:03;;;;;;;7.20;6.57;;;2.20;99.90;;;;;;6152128;23;20025;-81
2023/01/28 09:10:29;;;;;;;7.22;6.53;;;2.20;99.90;;;;;;6126449;23;20017;-81
2023/01/28 09:12:55;;;;;;;6.90;6.38;;;2.30;99.90;;;;;;6126150;23;20093;-80
2023/01/28 09:15:20;;;;;;;6.68;6.07;;;2.40;99.90;;;;;;6149604;23;20017;-80
2023/01/28 09:17:46;;;;;;;8.20;5.82;;;2.50;99.90;;;;;;6152554;23;20014;-81
2023/01/28 09:20:12;;;;;;;7.32;6.15;;;2.60;99.90;;;;;;6127617;23;20010;-81
2023/01/28 09:22:38;;;;;;;7.13;5.30;;;2.70;99.90;;;;;;6151070;23;20023;-82
2023/01/28 09:25:04;;;;;;;6.70;6.03;;;2.80;99.90;;;;;;6152563;23;20072;-81
2023/01/28 09:27:29;;;;;;;6.20;5.70;;;2.80;99.90;;;;;;6127973;23;20014;-81
2023/01/28 09:29:55;;;;;;;8.63;6.32;;;2.90;99.90;;;;;;6151736;23;20532;-83
2023/01/28 09:32:27;;;;;;;6.88;6.28;;;2.90;99.90;;;;;;6128924;23;20524;-85
2023/01/28 09:34:57;;;;;;;6.60;6.00;;;3.00;99.90;;;;;;6157645;23;20021;-84
2023/01/28 09:37:29;;;;;;;8.38;6.35;;;3.00;99.90;;;;;;6157088;23;20013;-86
2023/01/28 09:44:14;;;;;;;6.22;5.72;;;3.00;99.90;;;;;;6152695;23;20060;-85
2023/01/28 09:46:44;;;;;;;8.55;6.38;;;3.00;99.90;;;;;;6152139;23;20010;-82
2023/01/28 09:49:33;;;;;;;6.20;5.63;;;3.00;99.90;;;;;;6127200;23;20710;-82
2023/01/28 09:51:59;;;;;;;7.25;5.80;;;3.00;99.90;;;;;;6153515;23;20071;-81
2023/01/28 09:54:38;;;;;;;5.78;4.60;;;3.00;99.90;;;;;;6152530;23;20092;-82
2023/01/28 09:57:17;;;;;;;7.35;6.53;;;3.10;99.90;;;;;;6128927;23;20089;-81
2023/01/28 10:00:30;;;;;;;7.95;7.15;;;3.10;99.90;;;;;;6153549;23;20021;-83
2023/01/28 10:03:32;;;;;;;6.80;6.10;;;3.10;99.90;;;;;;6121905;23;20135;-82
2023/01/28 10:06:04;;;;;;;7.47;6.57;;;3.20;99.90;;;;;;6153309;23;20010;-81
2023/01/28 10:08:57;;;;;;;6.45;5.85;;;3.20;99.90;;;;;;6153451;23;20346;-82
2023/01/28 10:12:01;;;;;;;7.20;5.25;;;3.30;99.90;;;;;;6153592;23;20013;-82
2023/01/28 10:14:39;;;;;;;7.22;5.57;;;3.40;99.90;;;;;;6025356;23;20024;-83
2023/01/28 10:18:01;;;;;;;6.15;5.65;;;3.50;99.90;;;;;;6157802;23;20014;-86
2023/01/28 10:21:01;;;;;;;7.13;6.22;;;3.60;99.90;;;;;;6052766;23;20029;-86
2023/01/28 10:23:36;;;;;;;6.95;6.35;;;4.00;99.90;;;;;;6140638;23;20021;-85
2023/01/28 10:26:29;;;;;;;6.82;6.20;;;3.80;99.90;;;;;;6137568;23;20021;-85
2023/01/28 10:29:13;;;;;;;7.32;6.63;;;3.90;99.90;;;;;;6132756;23;20072;-86
2023/01/28 10:32:03;;;;;;;7.13;6.47;;;3.90;99.90;;;;;;6163548;23;20020;-86
2023/01/28 10:34:29;;;;;;;9.70;6.50;;;3.90;99.90;;;;;;6138480;23;20014;-86
2023/01/28 10:36:56;;;;;;;7.22;6.60;;;4.40;99.90;;;;;;6139640;23;20097;-85
2023/01/28 10:39:25;;;;;;;6.30;5.70;;;4.10;99.90;;;;;;6139119;23;20010;-85
2023/01/28 10:41:56;;;;;;;6.78;6.25;;;4.20;99.90;;;;;;6163606;23;20010;-85
2023/01/28 10:44:31;;;;;;;9.13;6.78;;;4.30;99.90;;;;;;6136823;23;20459;-85
2023/01/28 10:47:03;;;;;;;7.60;6.28;;;4.30;99.90;;;;;;6134199;23;20020;-85
2023/01/28 10:49:31;;;;;;;7.72;6.90;;;4.50;99.90;;;;;;6159963;23;20017;-85
2023/01/28 10:51:57;;;;;;;6.80;6.10;;;4.60;99.90;;;;;;6140928;23;20061;-85
2023/01/28 10:54:26;;;;;;;7.07;6.40;;;4.70;99.90;;;;;;6169237;23;20037;-86
2023/01/28 10:56:59;;;;;;;7.90;6.03;;;4.70;99.90;;;;;;6167458;23;20013;-85
2023/01/28 10:59:26;;;;;;;7.50;6.90;;;4.80;99.90;;;;;;6140477;23;20037;-86
2023/01/28 11:02:12;;;;;;;7.60;6.35;;;4.90;99.90;;;;;;6168104;23;20093;-86
2023/01/28 11:04:37;;;;;;;8.07;6.50;;;5.00;99.90;;;;;;6137769;23;20021;-86
2023/01/28 11:07:06;;;;;;;6.32;5.72;;;5.10;99.90;;;;;;6134524;23;20093;-85
2023/01/28 11:09:36;;;;;;;6.32;5.50;;;5.20;99.90;;;;;;6161560;23;20017;-85
2023/01/28 11:12:26;;;;;;;6.57;5.97;;;5.30;99.90;;;;;;6161887;23;20052;-85
2023/01/28 11:14:56;;;;;;;7.43;6.32;;;5.40;99.90;;;;;;6153565;23;20018;-84
2023/01/28 11:17:25;;;;;;;6.85;6.25;;;5.60;99.90;;;;;;6131183;23;20014;-83
2023/01/28 11:19:55;;;;;;;11.23;5.97;;;5.80;99.90;;;;;;6128313;23;20009;-83
2023/01/28 11:22:26;;;;;;;8.55;6.43;;;5.90;99.90;;;;;;6154394;23;20021;-83
2023/01/28 11:24:52;;;;;;;6.25;5.60;;;6.20;99.90;;;;;;6152917;23;20055;-83
2023/01/28 11:27:23;;;;;;;7.28;6.43;;;6.40;99.90;;;;;;6128646;23;20025;-83
2023/01/28 11:29:56;;;;;;;8.82;7.07;;;6.60;99.90;;;;;;6153118;23;20067;-83
2023/01/28 11:32:25;;;;;;;10.30;6.50;;;6.70;99.90;;;;;;6153554;23;20045;-83
2023/01/28 11:34:53;;;;;;;8.00;6.97;;;6.90;99.90;;;;;;6129319;23;20089;-82
2023/01/28 11:37:24;;;;;;;8.60;7.78;;;7.00;99.90;;;;;;6130792;23;20013;-82
2023/01/28 11:40:01;;;;;;;7.75;6.20;;;7.40;99.90;;;;;;6127289;23;20013;-83
2023/01/28 11:42:26;;;;;;;8.25;6.72;;;7.60;99.90;;;;;;6128280;23;20017;-83
2023/01/28 11:44:53;;;;;;;8.05;7.00;;;7.70;99.90;;;;;;6152193;23;20013;-84
2023/01/28 11:47:31;;;;;;;10.85;6.88;;;7.70;99.90;;;;;;6128241;23;20403;-84
2023/01/28 11:50:11;;;;;;;8.98;6.80;;;7.70;99.90;;;;;;6128352;23;20083;-82
2023/01/28 11:52:45;;;;;;;7.90;7.10;;;7.70;99.90;;;;;;6127696;23;20390;-83
2023/01/28 11:55:20;;;;;;;9.90;7.43;;;7.60;99.90;;;;;;6127309;23;20051;-83
2023/01/28 11:57:51;;;;;;;9.18;7.10;;;7.40;99.90;;;;;;6154834;23;20022;-83
2023/01/28 12:00:33;;;;;;;7.65;6.85;;;7.40;99.90;;;;;;6129456;23;20017;-83
2023/01/28 12:03:33;;;;;;;7.90;6.47;;;7.40;99.90;;;;;;6154842;23;20103;-83
2023/01/28 12:06:29;;;;;;;6.93;5.80;;;7.60;99.90;;;;;;6130266;23;20005;-83
2023/01/28 12:09:24;;;;;;;7.97;6.50;;;7.80;99.90;;;;;;6127426;23;20016;-81
2023/01/28 12:12:11;;;;;;;13.23;7.25;;;7.90;99.90;;;;;;6129021;23;20021;-86
2023/01/28 12:15:04;;;;;;;10.15;6.97;;;7.90;99.90;;;;;;6127683;23;20444;-82
2023/01/28 12:17:39;;;;;;;11.30;8.55;;;7.80;99.90;;;;;;6152056;23;20020;-81
2023/01/28 12:20:16;;;;;;;14.00;8.93;;;7.70;99.90;;;;;;6153336;23;20068;-83
2023/01/28 12:23:07;;;;;;;9.93;7.55;;;7.70;99.90;;;;;;6152066;23;20021;-83
2023/01/28 12:26:04;;;;;;;9.82;7.13;;;7.70;99.90;;;;;;6124379;23;20533;-80
2023/01/28 12:28:39;;;;;;;14.90;9.10;;;7.60;99.90;;;;;;6121921;23;20013;-82
2023/01/28 12:31:33;;;;;;;10.73;8.35;;;7.50;99.90;;;;;;6151454;23;20028;-83
2023/01/28 12:34:06;;;;;;;11.30;8.95;;;7.20;99.90;;;;;;6073889;23;20105;-84
2023/01/28 12:36:49;;;;;;;10.15;8.15;;;7.10;99.90;;;;;;6151159;23;20017;-82
2023/01/28 12:39:18;;;;;;;8.65;7.13;;;7.00;99.90;;;;;;6124248;23;20013;-81
2023/01/28 12:41:50;;;;;;;12.70;8.90;;;6.90;99.90;;;;;;6151581;23;20013;-82
2023/01/28 12:44:25;;;;;;;13.70;8.55;;;6.80;99.90;;;;;;6151341;23;20033;-82
2023/01/28 12:46:57;;;;;;;16.10;10.50;;;6.70;99.90;;;;;;6150786;23;20647;-81
2023/01/28 12:49:25;;;;;;;16.60;10.52;;;6.50;99.90;;;;;;6126642;23;20017;-82
2023/01/28 12:51:56;;;;;;;13.25;9.55;;;6.30;99.90;;;;;;6128290;23;20025;-82
2023/01/28 12:54:58;;;;;;;13.95;9.10;;;6.20;99.90;;;;;;6151915;23;20055;-85
2023/01/28 12:57:28;;;;;;;10.70;7.63;;;6.30;99.90;;;;;;6129924;23;20009;-84
2023/01/28 13:00:05;;;;;;;9.02;8.13;;;6.30;99.90;;;;;;6128721;23;20009;-86
2023/01/28 13:02:41;;;;;;;9.57;7.97;;;6.10;99.90;;;;;;6128211;23;20009;-85
2023/01/28 13:05:16;;;;;;;10.43;7.35;;;6.30;99.90;;;;;;6131999;23;20017;-85
2023/01/28 13:07:48;;;;;;;9.77;7.25;;;6.00;99.90;;;;;;6133310;23;20445;-87
2023/01/28 13:10:36;;;;;;;9.93;7.75;;;5.90;99.90;;;;;;6158637;23;20013;-83
2023/01/28 13:13:04;;;;;;;8.50;7.30;;;5.90;99.90;;;;;;6156082;23;20077;-84
2023/01/28 13:15:30;;;;;;;8.35;7.40;;;5.80;99.90;;;;;;6128294;23;20092;-84
2023/01/28 13:17:58;;;;;;;11.00;6.82;;;5.70;99.90;;;;;;6129437;23;20020;-84
2023/01/28 13:20:36;;;;;;;9.63;7.60;;;5.60;99.90;;;;;;6153854;23;20020;-83
2023/01/28 13:23:05;;;;;;;11.23;7.30;;;5.70;99.90;;;;;;6127916;23;20056;-82
2023/01/28 13:25:33;;;;;;;8.93;7.40;;;5.80;99.90;;;;;;6128101;23;20022;-85
2023/01/28 13:28:02;;;;;;;9.13;7.25;;;5.80;99.90;;;;;;6127954;23;20502;-83
2023/01/28 13:30:33;;;;;;;10.02;8.02;;;5.90;99.90;;;;;;6151683;23;20014;-84
2023/01/28 13:33:03;;;;;;;9.93;7.65;;;5.90;99.90;;;;;;6129615;23;20014;-84
2023/01/28 13:35:37;;;;;;;9.38;7.80;;;6.00;99.90;;;;;;6127204;23;20385;-83
2023/01/28 13:38:09;;;;;;;11.55;7.28;;;6.00;99.90;;;;;;6127236;23;20041;-83
2023/01/28 13:40:35;;;;;;;13.82;7.70;;;6.00;99.90;;;;;;6152512;23;20407;-82
2023/01/28 13:43:23;;;;;;;12.73;8.55;;;6.00;99.90;;;;;;6128075;23;20041;-82
2023/01/28 13:46:01;;;;;;;11.82;8.52;;;5.90;99.90;;;;;;6126409;23;20017;-82